sensor_id;sensor_type;location;lat;lon;timestamp;temperature;humidity
14875;DHT22;7529;48.170;17.138;2022-08-30T00:03:47;18.90;54.90
14875;DHT22;7529;48.170;17.138;2022-08-30T00:07:58;18.80;55.10
14875;DHT22;7529;48.170;17.138;2022-08-30T00:12:10;18.80;55.20
14875;DHT22;7529;48.170;17.138;2022-08-30T00:16:22;18.70;55.40
14875;DHT22;7529;48.170;17.138;2022-08-30T00:20:35;18.70;55.60
14875;DHT22;7529;48.170;17.138;2022-08-30T00:24:47;18.60;55.80
14875;DHT22;7529;48.170;17.138;2022-08-30T00:28:59;18.60;55.90
14875;DHT22;7529;48.170;17.138;2022-08-30T00:33:12;18.60;56.20
14875;DHT22;7529;48.170;17.138;2022-08-30T00:37:24;18.50;56.40
14875;DHT22;7529;48.170;17.138;2022-08-30T00:41:35;18.40;56.70
14875;DHT22;7529;48.170;17.138;2022-08-30T00:45:47;18.40;56.90
14875;DHT22;7529;48.170;17.138;2022-08-30T00:49:59;18.50;56.90
14875;DHT22;7529;48.170;17.138;2022-08-30T00:54:11;18.40;57.10
14875;DHT22;7529;48.170;17.138;2022-08-30T00:58:30;18.40;57.30
14875;DHT22;7529;48.170;17.138;2022-08-30T01:02:44;18.40;57.50
14875;DHT22;7529;48.170;17.138;2022-08-30T01:06:55;18.30;57.50
14875;DHT22;7529;48.170;17.138;2022-08-30T01:11:07;18.30;57.60
14875;DHT22;7529;48.170;17.138;2022-08-30T01:15:20;18.30;57.70
14875;DHT22;7529;48.170;17.138;2022-08-30T01:19:46;18.20;57.90
14875;DHT22;7529;48.170;17.138;2022-08-30T01:24:01;18.10;58.50
14875;DHT22;7529;48.170;17.138;2022-08-30T01:28:17;18.00;58.20
14875;DHT22;7529;48.170;17.138;2022-08-30T01:32:39;18.00;58.30
14875;DHT22;7529;48.170;17.138;2022-08-30T01:36:53;18.00;58.60
14875;DHT22;7529;48.170;17.138;2022-08-30T01:41:21;18.10;58.50
14875;DHT22;7529;48.170;17.138;2022-08-30T01:45:43;17.90;59.00
14875;DHT22;7529;48.170;17.138;2022-08-30T01:49:54;17.90;58.80
14875;DHT22;7529;48.170;17.138;2022-08-30T01:54:06;17.90;58.90
14875;DHT22;7529;48.170;17.138;2022-08-30T01:58:18;17.90;59.00
14875;DHT22;7529;48.170;17.138;2022-08-30T02:02:29;17.80;59.20
14875;DHT22;7529;48.170;17.138;2022-08-30T02:06:41;17.80;59.30
14875;DHT22;7529;48.170;17.138;2022-08-30T02:10:54;17.80;59.40
14875;DHT22;7529;48.170;17.138;2022-08-30T02:15:06;17.80;59.60
14875;DHT22;7529;48.170;17.138;2022-08-30T02:19:19;17.70;59.70
14875;DHT22;7529;48.170;17.138;2022-08-30T02:23:30;17.70;59.80
14875;DHT22;7529;48.170;17.138;2022-08-30T02:27:42;17.60;60.00
14875;DHT22;7529;48.170;17.138;2022-08-30T02:31:53;17.60;60.30
14875;DHT22;7529;48.170;17.138;2022-08-30T02:36:06;17.50;60.50
14875;DHT22;7529;48.170;17.138;2022-08-30T02:40:18;17.50;60.60
14875;DHT22;7529;48.170;17.138;2022-08-30T02:44:32;17.50;60.90
14875;DHT22;7529;48.170;17.138;2022-08-30T02:48:43;17.60;61.00
14875;DHT22;7529;48.170;17.138;2022-08-30T02:52:55;17.50;61.10
14875;DHT22;7529;48.170;17.138;2022-08-30T02:57:06;17.40;61.30
14875;DHT22;7529;48.170;17.138;2022-08-30T03:01:19;17.40;61.50
14875;DHT22;7529;48.170;17.138;2022-08-30T03:05:30;17.40;62.40
14875;DHT22;7529;48.170;17.138;2022-08-30T03:09:43;17.40;62.00
14875;DHT22;7529;48.170;17.138;2022-08-30T03:13:54;17.50;62.10
14875;DHT22;7529;48.170;17.138;2022-08-30T03:18:07;17.50;62.20
14875;DHT22;7529;48.170;17.138;2022-08-30T03:22:18;17.40;62.40
14875;DHT22;7529;48.170;17.138;2022-08-30T03:26:30;17.50;62.60
14875;DHT22;7529;48.170;17.138;2022-08-30T03:30:41;17.50;62.70
14875;DHT22;7529;48.170;17.138;2022-08-30T03:34:53;17.40;63.10
14875;DHT22;7529;48.170;17.138;2022-08-30T03:39:06;17.40;63.30
14875;DHT22;7529;48.170;17.138;2022-08-30T03:43:18;17.30;63.50
14875;DHT22;7529;48.170;17.138;2022-08-30T03:47:29;17.30;63.70
14875;DHT22;7529;48.170;17.138;2022-08-30T03:51:41;17.30;64.00
14875;DHT22;7529;48.170;17.138;2022-08-30T03:55:54;17.30;64.10
14875;DHT22;7529;48.170;17.138;2022-08-30T04:00:06;17.20;64.20
14875;DHT22;7529;48.170;17.138;2022-08-30T04:04:22;17.20;64.50
14875;DHT22;7529;48.170;17.138;2022-08-30T04:08:34;17.20;64.50
14875;DHT22;7529;48.170;17.138;2022-08-30T04:12:46;17.20;64.70
14875;DHT22;7529;48.170;17.138;2022-08-30T04:16:58;17.20;65.00
14875;DHT22;7529;48.170;17.138;2022-08-30T04:21:09;17.30;65.10
14875;DHT22;7529;48.170;17.138;2022-08-30T04:25:21;17.30;65.30
14875;DHT22;7529;48.170;17.138;2022-08-30T04:29:34;17.30;65.40
14875;DHT22;7529;48.170;17.138;2022-08-30T04:33:45;17.40;65.60
14875;DHT22;7529;48.170;17.138;2022-08-30T04:37:57;17.50;65.60
14875;DHT22;7529;48.170;17.138;2022-08-30T04:42:09;17.50;65.80
14875;DHT22;7529;48.170;17.138;2022-08-30T04:46:21;17.60;65.90
14875;DHT22;7529;48.170;17.138;2022-08-30T04:50:33;17.70;65.90
14875;DHT22;7529;48.170;17.138;2022-08-30T04:54:57;17.80;66.00
14875;DHT22;7529;48.170;17.138;2022-08-30T04:59:09;17.90;66.10
14875;DHT22;7529;48.170;17.138;2022-08-30T05:03:20;17.90;66.10
14875;DHT22;7529;48.170;17.138;2022-08-30T05:07:32;18.00;66.20
14875;DHT22;7529;48.170;17.138;2022-08-30T05:11:44;18.10;66.10
14875;DHT22;7529;48.170;17.138;2022-08-30T05:15:56;18.30;66.50
14875;DHT22;7529;48.170;17.138;2022-08-30T05:20:09;18.60;66.30
14875;DHT22;7529;48.170;17.138;2022-08-30T05:24:21;18.70;66.00
14875;DHT22;7529;48.170;17.138;2022-08-30T05:28:34;18.90;65.70
14875;DHT22;7529;48.170;17.138;2022-08-30T05:32:46;19.00;65.60
14875;DHT22;7529;48.170;17.138;2022-08-30T05:36:57;19.10;65.60
14875;DHT22;7529;48.170;17.138;2022-08-30T05:41:10;19.20;65.60
14875;DHT22;7529;48.170;17.138;2022-08-30T05:45:22;19.40;65.40
14875;DHT22;7529;48.170;17.138;2022-08-30T05:49:34;19.60;65.40
14875;DHT22;7529;48.170;17.138;2022-08-30T05:53:47;19.70;65.10
14875;DHT22;7529;48.170;17.138;2022-08-30T05:57:59;19.80;65.60
14875;DHT22;7529;48.170;17.138;2022-08-30T06:02:11;20.00;64.80
14875;DHT22;7529;48.170;17.138;2022-08-30T06:06:23;20.10;64.60
14875;DHT22;7529;48.170;17.138;2022-08-30T06:10:35;20.20;64.50
14875;DHT22;7529;48.170;17.138;2022-08-30T06:14:47;20.30;64.30
14875;DHT22;7529;48.170;17.138;2022-08-30T06:18:59;20.50;64.20
14875;DHT22;7529;48.170;17.138;2022-08-30T06:23:11;20.60;64.00
14875;DHT22;7529;48.170;17.138;2022-08-30T06:27:22;20.70;63.80
14875;DHT22;7529;48.170;17.138;2022-08-30T06:31:34;20.90;63.70
14875;DHT22;7529;48.170;17.138;2022-08-30T06:35:45;21.00;64.20
14875;DHT22;7529;48.170;17.138;2022-08-30T06:39:58;21.20;63.30
14875;DHT22;7529;48.170;17.138;2022-08-30T06:44:11;21.40;63.10
14875;DHT22;7529;48.170;17.138;2022-08-30T06:48:22;21.50;62.90
14875;DHT22;7529;48.170;17.138;2022-08-30T06:52:34;21.70;62.80
14875;DHT22;7529;48.170;17.138;2022-08-30T06:56:47;21.90;62.60
14875;DHT22;7529;48.170;17.138;2022-08-30T07:00:59;22.10;62.30
14875;DHT22;7529;48.170;17.138;2022-08-30T07:05:11;22.30;62.20
14875;DHT22;7529;48.170;17.138;2022-08-30T07:09:27;22.50;61.90
14875;DHT22;7529;48.170;17.138;2022-08-30T07:13:39;22.60;61.70
14875;DHT22;7529;48.170;17.138;2022-08-30T07:17:50;22.60;61.60
14875;DHT22;7529;48.170;17.138;2022-08-30T07:22:21;22.70;61.50
14875;DHT22;7529;48.170;17.138;2022-08-30T07:26:38;22.80;61.30
14875;DHT22;7529;48.170;17.138;2022-08-30T07:30:51;22.80;61.20
14875;DHT22;7529;48.170;17.138;2022-08-30T07:35:04;22.90;61.30
14875;DHT22;7529;48.170;17.138;2022-08-30T07:39:16;23.00;61.20
14875;DHT22;7529;48.170;17.138;2022-08-30T07:43:29;23.10;60.80
14875;DHT22;7529;48.170;17.138;2022-08-30T07:47:43;23.30;60.60
14875;DHT22;7529;48.170;17.138;2022-08-30T07:51:55;23.50;60.20
14875;DHT22;7529;48.170;17.138;2022-08-30T07:56:07;23.60;59.90
14875;DHT22;7529;48.170;17.138;2022-08-30T08:00:19;23.70;59.70
14875;DHT22;7529;48.170;17.138;2022-08-30T08:04:30;23.80;59.30
14875;DHT22;7529;48.170;17.138;2022-08-30T08:08:43;24.00;59.10
14875;DHT22;7529;48.170;17.138;2022-08-30T08:12:55;25.60;57.50
14875;DHT22;7529;48.170;17.138;2022-08-30T08:17:07;30.60;54.70
14875;DHT22;7529;48.170;17.138;2022-08-30T08:21:19;34.90;51.80
14875;DHT22;7529;48.170;17.138;2022-08-30T08:25:32;37.60;48.30
14875;DHT22;7529;48.170;17.138;2022-08-30T08:29:45;39.80;46.20
14875;DHT22;7529;48.170;17.138;2022-08-30T08:33:57;41.50;44.10
14875;DHT22;7529;48.170;17.138;2022-08-30T08:38:10;43.10;42.10
14875;DHT22;7529;48.170;17.138;2022-08-30T08:47:25;44.60;37.30
14875;DHT22;7529;48.170;17.138;2022-08-30T08:51:40;45.70;36.90
14875;DHT22;7529;48.170;17.138;2022-08-30T08:56:14;44.60;36.00
14875;DHT22;7529;48.170;17.138;2022-08-30T09:00:27;44.90;35.00
14875;DHT22;7529;48.170;17.138;2022-08-30T09:04:39;43.90;35.70
14875;DHT22;7529;48.170;17.138;2022-08-30T09:08:51;44.90;34.30
14875;DHT22;7529;48.170;17.138;2022-08-30T09:13:03;43.30;34.80
14875;DHT22;7529;48.170;17.138;2022-08-30T09:17:17;39.90;35.50
14875;DHT22;7529;48.170;17.138;2022-08-30T09:21:29;41.20;35.10
14875;DHT22;7529;48.170;17.138;2022-08-30T09:25:55;45.70;33.60
14875;DHT22;7529;48.170;17.138;2022-08-30T09:30:17;48.50;30.70
14875;DHT22;7529;48.170;17.138;2022-08-30T09:34:32;51.00;29.80
14875;DHT22;7529;48.170;17.138;2022-08-30T09:38:43;51.10;28.70
14875;DHT22;7529;48.170;17.138;2022-08-30T09:43:04;52.40;27.70
14875;DHT22;7529;48.170;17.138;2022-08-30T09:47:29;54.00;26.80
14875;DHT22;7529;48.170;17.138;2022-08-30T09:51:58;54.90;26.40
14875;DHT22;7529;48.170;17.138;2022-08-30T09:56:38;53.40;26.00
14875;DHT22;7529;48.170;17.138;2022-08-30T10:01:27;52.90;26.20
14875;DHT22;7529;48.170;17.138;2022-08-30T10:24:25;55.80;23.80
14875;DHT22;7529;48.170;17.138;2022-08-30T10:28:45;56.60;23.60
14875;DHT22;7529;48.170;17.138;2022-08-30T10:33:02;57.00;23.40
14875;DHT22;7529;48.170;17.138;2022-08-30T10:37:23;57.20;23.20
14875;DHT22;7529;48.170;17.138;2022-08-30T10:41:40;55.80;22.50
14875;DHT22;7529;48.170;17.138;2022-08-30T10:51:13;55.90;21.60
14875;DHT22;7529;48.170;17.138;2022-08-30T10:55:30;55.30;21.70
14875;DHT22;7529;48.170;17.138;2022-08-30T10:59:51;54.90;21.90
14875;DHT22;7529;48.170;17.138;2022-08-30T11:13:29;53.10;21.20
14875;DHT22;7529;48.170;17.138;2022-08-30T11:18:02;52.90;20.80
14875;DHT22;7529;48.170;17.138;2022-08-30T11:22:23;53.50;21.00
14875;DHT22;7529;48.170;17.138;2022-08-30T11:31:10;52.70;20.40
14875;DHT22;7529;48.170;17.138;2022-08-30T11:35:40;53.20;20.50
14875;DHT22;7529;48.170;17.138;2022-08-30T11:39:58;53.30;20.40
14875;DHT22;7529;48.170;17.138;2022-08-30T11:48:43;54.00;19.90
14875;DHT22;7529;48.170;17.138;2022-08-30T11:53:29;54.60;19.90
14875;DHT22;7529;48.170;17.138;2022-08-30T12:02:47;54.80;19.80
14875;DHT22;7529;48.170;17.138;2022-08-30T12:07:02;55.80;19.80
14875;DHT22;7529;48.170;17.138;2022-08-30T12:20:24;55.60;19.60
14875;DHT22;7529;48.170;17.138;2022-08-30T12:24:42;54.50;19.80
14875;DHT22;7529;48.170;17.138;2022-08-30T12:33:26;53.40;19.60
14875;DHT22;7529;48.170;17.138;2022-08-30T12:37:43;52.90;19.70
14875;DHT22;7529;48.170;17.138;2022-08-30T12:41:55;53.50;19.80
14875;DHT22;7529;48.170;17.138;2022-08-30T12:46:24;53.70;19.60
14875;DHT22;7529;48.170;17.138;2022-08-30T12:50:49;52.90;19.70
14875;DHT22;7529;48.170;17.138;2022-08-30T12:55:15;52.20;19.30
14875;DHT22;7529;48.170;17.138;2022-08-30T12:59:51;51.30;19.50
14875;DHT22;7529;48.170;17.138;2022-08-30T13:04:22;51.30;19.50
14875;DHT22;7529;48.170;17.138;2022-08-30T13:13:04;51.90;19.60
14875;DHT22;7529;48.170;17.138;2022-08-30T13:17:24;51.40;19.60
14875;DHT22;7529;48.170;17.138;2022-08-30T13:21:48;51.20;19.30
14875;DHT22;7529;48.170;17.138;2022-08-30T13:26:01;51.30;19.30
14875;DHT22;7529;48.170;17.138;2022-08-30T13:30:14;51.10;19.50
14875;DHT22;7529;48.170;17.138;2022-08-30T13:34:28;50.80;19.40
14875;DHT22;7529;48.170;17.138;2022-08-30T13:38:43;50.40;19.50
14875;DHT22;7529;48.170;17.138;2022-08-30T13:42:54;50.10;19.80
14875;DHT22;7529;48.170;17.138;2022-08-30T13:47:07;49.70;19.40
14875;DHT22;7529;48.170;17.138;2022-08-30T13:51:19;49.60;19.40
14875;DHT22;7529;48.170;17.138;2022-08-30T13:55:31;49.70;19.40
14875;DHT22;7529;48.170;17.138;2022-08-30T13:59:43;49.30;19.50
14875;DHT22;7529;48.170;17.138;2022-08-30T14:03:55;48.80;19.60
14875;DHT22;7529;48.170;17.138;2022-08-30T14:08:07;48.30;19.60
14875;DHT22;7529;48.170;17.138;2022-08-30T14:12:21;48.90;19.90
14875;DHT22;7529;48.170;17.138;2022-08-30T14:16:33;48.10;19.90
14875;DHT22;7529;48.170;17.138;2022-08-30T14:20:46;47.70;20.60
14875;DHT22;7529;48.170;17.138;2022-08-30T14:24:57;47.80;20.20
14875;DHT22;7529;48.170;17.138;2022-08-30T14:29:18;47.30;20.40
14875;DHT22;7529;48.170;17.138;2022-08-30T14:33:31;46.50;20.50
14875;DHT22;7529;48.170;17.138;2022-08-30T14:37:48;45.50;20.60
14875;DHT22;7529;48.170;17.138;2022-08-30T14:42:00;45.40;20.70
14875;DHT22;7529;48.170;17.138;2022-08-30T14:46:12;45.70;20.80
14875;DHT22;7529;48.170;17.138;2022-08-30T14:50:23;45.00;20.70
14875;DHT22;7529;48.170;17.138;2022-08-30T14:54:35;44.40;20.80
14875;DHT22;7529;48.170;17.138;2022-08-30T14:58:51;44.20;20.90
14875;DHT22;7529;48.170;17.138;2022-08-30T15:03:04;43.80;21.00
14875;DHT22;7529;48.170;17.138;2022-08-30T15:07:15;43.80;21.10
14875;DHT22;7529;48.170;17.138;2022-08-30T15:11:27;43.90;20.90
14875;DHT22;7529;48.170;17.138;2022-08-30T15:15:41;42.80;21.00
14875;DHT22;7529;48.170;17.138;2022-08-30T15:19:53;42.60;21.20
14875;DHT22;7529;48.170;17.138;2022-08-30T15:24:06;42.60;21.20
14875;DHT22;7529;48.170;17.138;2022-08-30T15:28:19;41.70;21.30
14875;DHT22;7529;48.170;17.138;2022-08-30T15:32:30;41.40;21.40
14875;DHT22;7529;48.170;17.138;2022-08-30T15:36:43;40.90;21.50
14875;DHT22;7529;48.170;17.138;2022-08-30T15:40:56;40.70;21.70
14875;DHT22;7529;48.170;17.138;2022-08-30T15:45:13;40.00;21.80
14875;DHT22;7529;48.170;17.138;2022-08-30T15:49:25;39.80;21.90
14875;DHT22;7529;48.170;17.138;2022-08-30T15:53:37;39.20;22.00
14875;DHT22;7529;48.170;17.138;2022-08-30T15:57:49;39.10;22.10
14875;DHT22;7529;48.170;17.138;2022-08-30T16:02:00;39.30;22.20
14875;DHT22;7529;48.170;17.138;2022-08-30T16:06:33;39.00;22.10
14875;DHT22;7529;48.170;17.138;2022-08-30T16:10:47;38.50;22.30
14875;DHT22;7529;48.170;17.138;2022-08-30T16:15:00;38.20;22.40
14875;DHT22;7529;48.170;17.138;2022-08-30T16:19:11;37.90;22.50
14875;DHT22;7529;48.170;17.138;2022-08-30T16:23:23;37.70;22.50
14875;DHT22;7529;48.170;17.138;2022-08-30T16:27:35;37.60;22.70
14875;DHT22;7529;48.170;17.138;2022-08-30T16:31:49;37.10;22.90
14875;DHT22;7529;48.170;17.138;2022-08-30T16:36:02;36.40;23.20
14875;DHT22;7529;48.170;17.138;2022-08-30T16:40:13;35.70;23.40
14875;DHT22;7529;48.170;17.138;2022-08-30T16:44:25;35.10;23.70
14875;DHT22;7529;48.170;17.138;2022-08-30T16:48:38;34.40;24.10
14875;DHT22;7529;48.170;17.138;2022-08-30T16:52:50;33.80;24.40
14875;DHT22;7529;48.170;17.138;2022-08-30T16:57:03;33.20;24.70
14875;DHT22;7529;48.170;17.138;2022-08-30T17:01:18;32.50;25.10
14875;DHT22;7529;48.170;17.138;2022-08-30T17:05:31;31.70;25.60
14875;DHT22;7529;48.170;17.138;2022-08-30T17:09:45;31.00;26.00
14875;DHT22;7529;48.170;17.138;2022-08-30T17:13:57;29.60;26.50
14875;DHT22;7529;48.170;17.138;2022-08-30T17:18:08;28.10;27.20
14875;DHT22;7529;48.170;17.138;2022-08-30T17:22:20;27.00;27.70
14875;DHT22;7529;48.170;17.138;2022-08-30T17:26:33;26.10;28.10
14875;DHT22;7529;48.170;17.138;2022-08-30T17:30:45;25.60;28.50
14875;DHT22;7529;48.170;17.138;2022-08-30T17:34:57;25.10;28.80
14875;DHT22;7529;48.170;17.138;2022-08-30T17:39:08;24.60;29.20
14875;DHT22;7529;48.170;17.138;2022-08-30T17:43:21;24.30;29.50
14875;DHT22;7529;48.170;17.138;2022-08-30T17:47:32;24.00;29.90
14875;DHT22;7529;48.170;17.138;2022-08-30T17:51:44;23.70;30.10
14875;DHT22;7529;48.170;17.138;2022-08-30T17:55:56;23.40;30.50
14875;DHT22;7529;48.170;17.138;2022-08-30T18:00:09;23.30;30.80
14875;DHT22;7529;48.170;17.138;2022-08-30T18:04:24;23.10;31.10
14875;DHT22;7529;48.170;17.138;2022-08-30T18:08:36;23.00;31.30
14875;DHT22;7529;48.170;17.138;2022-08-30T18:12:47;22.90;31.70
14875;DHT22;7529;48.170;17.138;2022-08-30T18:16:59;22.90;31.90
14875;DHT22;7529;48.170;17.138;2022-08-30T18:21:12;22.70;32.20
14875;DHT22;7529;48.170;17.138;2022-08-30T18:25:25;22.50;32.50
14875;DHT22;7529;48.170;17.138;2022-08-30T18:29:37;22.30;32.80
14875;DHT22;7529;48.170;17.138;2022-08-30T18:33:49;22.20;33.20
14875;DHT22;7529;48.170;17.138;2022-08-30T18:38:01;22.10;33.40
14875;DHT22;7529;48.170;17.138;2022-08-30T18:42:13;22.10;33.70
14875;DHT22;7529;48.170;17.138;2022-08-30T18:46:24;22.00;33.90
14875;DHT22;7529;48.170;17.138;2022-08-30T18:50:38;21.90;34.20
14875;DHT22;7529;48.170;17.138;2022-08-30T18:54:51;21.80;34.50
14875;DHT22;7529;48.170;17.138;2022-08-30T18:59:02;21.80;34.70
14875;DHT22;7529;48.170;17.138;2022-08-30T19:03:15;21.70;34.90
14875;DHT22;7529;48.170;17.138;2022-08-30T19:07:28;21.60;35.20
14875;DHT22;7529;48.170;17.138;2022-08-30T19:11:39;21.50;35.40
14875;DHT22;7529;48.170;17.138;2022-08-30T19:15:52;21.40;35.60
14875;DHT22;7529;48.170;17.138;2022-08-30T19:20:05;21.20;35.80
14875;DHT22;7529;48.170;17.138;2022-08-30T19:24:20;21.00;36.20
14875;DHT22;7529;48.170;17.138;2022-08-30T19:28:31;20.90;36.40
14875;DHT22;7529;48.170;17.138;2022-08-30T19:32:44;20.90;36.70
14875;DHT22;7529;48.170;17.138;2022-08-30T19:36:56;20.90;36.70
14875;DHT22;7529;48.170;17.138;2022-08-30T19:41:08;20.90;36.80
14875;DHT22;7529;48.170;17.138;2022-08-30T19:45:21;20.90;37.20
14875;DHT22;7529;48.170;17.138;2022-08-30T19:49:34;20.80;37.20
14875;DHT22;7529;48.170;17.138;2022-08-30T19:53:45;20.80;37.40
14875;DHT22;7529;48.170;17.138;2022-08-30T19:57:57;20.70;37.50
14875;DHT22;7529;48.170;17.138;2022-08-30T20:02:09;20.70;37.70
14875;DHT22;7529;48.170;17.138;2022-08-30T20:06:21;20.60;37.70
14875;DHT22;7529;48.170;17.138;2022-08-30T20:10:32;20.60;38.00
14875;DHT22;7529;48.170;17.138;2022-08-30T20:14:45;20.40;38.10
14875;DHT22;7529;48.170;17.138;2022-08-30T20:18:57;20.40;38.50
14875;DHT22;7529;48.170;17.138;2022-08-30T20:23:09;20.40;38.60
14875;DHT22;7529;48.170;17.138;2022-08-30T20:27:20;20.30;38.70
14875;DHT22;7529;48.170;17.138;2022-08-30T20:31:34;20.20;38.90
14875;DHT22;7529;48.170;17.138;2022-08-30T20:35:46;20.20;39.20
14875;DHT22;7529;48.170;17.138;2022-08-30T20:39:59;20.20;39.30
14875;DHT22;7529;48.170;17.138;2022-08-30T20:44:12;20.10;39.60
14875;DHT22;7529;48.170;17.138;2022-08-30T20:48:24;20.00;39.70
14875;DHT22;7529;48.170;17.138;2022-08-30T20:52:38;20.00;39.80
14875;DHT22;7529;48.170;17.138;2022-08-30T20:56:50;20.00;39.90
14875;DHT22;7529;48.170;17.138;2022-08-30T21:01:07;20.00;40.10
14875;DHT22;7529;48.170;17.138;2022-08-30T21:05:19;19.90;40.30
14875;DHT22;7529;48.170;17.138;2022-08-30T21:09:31;19.80;40.30
14875;DHT22;7529;48.170;17.138;2022-08-30T21:13:43;19.80;40.50
14875;DHT22;7529;48.170;17.138;2022-08-30T21:17:55;19.80;40.60
14875;DHT22;7529;48.170;17.138;2022-08-30T21:22:06;19.80;40.80
14875;DHT22;7529;48.170;17.138;2022-08-30T21:26:19;19.80;40.90
14875;DHT22;7529;48.170;17.138;2022-08-30T21:30:32;19.70;41.20
14875;DHT22;7529;48.170;17.138;2022-08-30T21:34:44;19.60;41.40
14875;DHT22;7529;48.170;17.138;2022-08-30T21:39:26;19.60;41.70
14875;DHT22;7529;48.170;17.138;2022-08-30T21:43:38;19.50;42.90
14875;DHT22;7529;48.170;17.138;2022-08-30T21:47:49;19.40;42.00
14875;DHT22;7529;48.170;17.138;2022-08-30T21:52:01;19.30;42.30
14875;DHT22;7529;48.170;17.138;2022-08-30T21:56:15;19.20;43.10
14875;DHT22;7529;48.170;17.138;2022-08-30T22:00:28;19.30;42.70
14875;DHT22;7529;48.170;17.138;2022-08-30T22:04:40;19.30;42.70
14875;DHT22;7529;48.170;17.138;2022-08-30T22:08:52;19.30;42.90
14875;DHT22;7529;48.170;17.138;2022-08-30T22:13:04;19.30;43.00
14875;DHT22;7529;48.170;17.138;2022-08-30T22:17:16;19.20;43.10
14875;DHT22;7529;48.170;17.138;2022-08-30T22:21:32;19.20;43.40
14875;DHT22;7529;48.170;17.138;2022-08-30T22:25:44;19.10;43.70
14875;DHT22;7529;48.170;17.138;2022-08-30T22:29:57;19.00;43.80
14875;DHT22;7529;48.170;17.138;2022-08-30T22:34:09;19.00;44.10
14875;DHT22;7529;48.170;17.138;2022-08-30T22:38:21;18.90;44.30
14875;DHT22;7529;48.170;17.138;2022-08-30T22:42:33;18.80;45.00
14875;DHT22;7529;48.170;17.138;2022-08-30T22:46:45;18.80;44.70
14875;DHT22;7529;48.170;17.138;2022-08-30T22:50:56;18.80;44.90
14875;DHT22;7529;48.170;17.138;2022-08-30T22:55:08;18.70;45.10
14875;DHT22;7529;48.170;17.138;2022-08-30T22:59:20;18.60;45.30
14875;DHT22;7529;48.170;17.138;2022-08-30T23:03:33;18.60;45.50
14875;DHT22;7529;48.170;17.138;2022-08-30T23:07:45;18.60;45.70
14875;DHT22;7529;48.170;17.138;2022-08-30T23:11:57;18.60;45.80
14875;DHT22;7529;48.170;17.138;2022-08-30T23:16:09;18.60;45.90
14875;DHT22;7529;48.170;17.138;2022-08-30T23:20:22;18.50;46.30
14875;DHT22;7529;48.170;17.138;2022-08-30T23:24:33;18.50;46.30
14875;DHT22;7529;48.170;17.138;2022-08-30T23:29:05;18.60;46.30
14875;DHT22;7529;48.170;17.138;2022-08-30T23:33:35;18.50;46.40
14875;DHT22;7529;48.170;17.138;2022-08-30T23:38:05;18.50;46.60
14875;DHT22;7529;48.170;17.138;2022-08-30T23:42:36;18.40;46.70
14875;DHT22;7529;48.170;17.138;2022-08-30T23:47:06;18.40;46.90
14875;DHT22;7529;48.170;17.138;2022-08-30T23:51:37;18.30;47.10
14875;DHT22;7529;48.170;17.138;2022-08-30T23:56:11;18.30;47.30
